Time;durP1;ratioP1;P1;durP2;ratioP2;P2;SDS_P1;SDS_P2;PMS_P1;PMS_P2;Temp;Humidity;BMP_temperature;BMP_pressure;BME280_temperature;BME280_humidity;BME280_pressure;Samples;Min_cycle;Max_cycle;Signal;HPM_P1;HPM_P2
2022/09/07 08:02:03;;;;;;;23.90;21.67;;;;;;;19.14;88.18;101133.84;5279951;28;20406;-71
2022/09/07 08:04:34;;;;;;;19.42;17.63;;;;;;;19.27;86.69;101127.97;5279080;28;20108;-73
2022/09/07 08:07:06;;;;;;;22.50;20.45;;;;;;;19.10;87.45;101130.91;5280200;28;20103;-74
2022/09/07 08:09:41;;;;;;;22.58;20.52;;;;;;;19.24;87.14;101131.47;5280075;28;20061;-74
2022/09/07 08:12:18;;;;;;;16.83;15.30;;;;;;;19.60;85.01;101126.41;5279157;28;20031;-77
2022/09/07 08:14:50;;;;;;;22.15;20.27;;;;;;;19.32;87.05;101136.19;5278809;28;20475;-74
2022/09/07 08:17:21;;;;;;;30.67;28.08;;;;;;;19.45;87.02;101134.28;5259186;28;20033;-75
2022/09/07 08:19:54;;;;;;;23.45;21.23;;;;;;;19.51;87.26;101135.75;5272680;28;20025;-74
2022/09/07 08:22:25;;;;;;;22.30;20.40;;;;;;;19.30;89.48;101137.69;5264840;28;20032;-74
2022/09/07 08:24:57;;;;;;;16.27;14.77;;;;;;;19.84;85.38;101132.19;5257874;28;20029;-75
2022/09/07 08:27:29;;;;;;;15.10;13.80;;;;;;;20.10;82.77;101136.72;5258725;28;20448;-74
2022/09/07 08:30:01;;;;;;;19.25;17.50;;;;;;;19.90;83.93;101138.41;5262169;28;20363;-75
2022/09/07 08:32:32;;;;;;;21.00;18.98;;;;;;;19.89;84.91;101140.41;5258766;28;20029;-79
2022/09/07 08:35:07;;;;;;;19.23;17.48;;;;;;;20.02;84.90;101143.25;5278747;28;20094;-78
2022/09/07 08:37:38;;;;;;;18.50;16.90;;;;;;;20.08;84.28;101139.88;5279726;28;20017;-72
2022/09/07 08:40:15;;;;;;;22.60;18.05;;;;;;;20.00;85.29;101143.59;5272712;28;20097;-75
2022/09/07 08:43:14;;;;;;;18.52;16.92;;;;;;;20.07;84.19;101149.50;5267939;28;20028;-76
2022/09/07 08:45:50;;;;;;;18.58;16.88;;;;;;;19.97;83.48;101145.13;5271514;28;20029;-75
2022/09/07 08:48:30;;;;;;;18.05;16.17;;;;;;;20.14;83.56;101144.09;5273246;28;20397;-76
2022/09/07 08:51:10;;;;;;;17.30;15.80;;;;;;;20.15;83.40;101144.94;5268137;28;20031;-76
2022/09/07 08:53:45;;;;;;;15.98;14.57;;;;;;;20.17;84.32;101146.25;5278290;28;20058;-76
2022/09/07 08:56:28;;;;;;;15.60;14.02;;;;;;;20.41;82.66;101145.47;5278835;28;20031;-76
2022/09/07 08:59:10;;;;;;;15.43;14.05;;;;;;;20.27;83.14;101149.78;5278809;28;20037;-76
2022/09/07 09:01:42;;;;;;;13.23;11.85;;;;;;;20.31;81.61;101147.91;5258895;28;20080;-76
2022/09/07 09:04:22;;;;;;;11.50;10.50;;;;;;;20.59;80.61;101143.28;5269612;28;20025;-76
2022/09/07 09:07:21;;;;;;;12.60;11.30;;;;;;;20.76;80.16;101147.88;5269731;28;20091;-76
2022/09/07 09:10:32;;;;;;;12.63;11.40;;;;;;;20.82;80.40;101146.47;5276501;28;20055;-75
2022/09/07 09:13:24;;;;;;;11.27;8.43;;;;;;;21.14;77.47;101143.03;5236899;28;20444;-75
2022/09/07 09:16:12;;;;;;;10.25;9.23;;;;;;;21.05;77.23;101141.16;5243391;28;20032;-74
2022/09/07 09:19:05;;;;;;;9.18;8.27;;;;;;;21.00;76.19;101149.88;5243750;28;20041;-74
2022/09/07 09:21:39;;;;;;;16.27;14.75;;;;;;;21.12;77.00;101142.59;5242835;28;20117;-77
2022/09/07 09:24:18;;;;;;;12.52;11.25;;;;;;;21.23;75.76;101136.09;5248233;28;20017;-76
2022/09/07 09:26:56;;;;;;;10.20;9.20;;;;;;;21.32;75.41;101149.25;5259433;28;20071;-76
2022/09/07 09:29:28;;;;;;;9.30;8.50;;;;;;;21.35;75.18;101137.25;5263417;28;20029;-76
2022/09/07 09:32:40;;;;;;;9.98;8.95;;;;;;;21.49;75.43;101141.34;5263278;28;20040;-76
2022/09/07 09:35:16;;;;;;;9.77;7.95;;;;;;;21.65;74.61;101143.41;5263619;28;20090;-77
2022/09/07 09:37:47;;;;;;;9.25;8.15;;;;;;;21.67;73.93;101136.22;5256705;28;20112;-76
2022/09/07 09:40:35;;;;;;;8.30;6.70;;;;;;;21.68;71.20;101142.72;5244642;28;20109;-75
2022/09/07 09:43:19;;;;;;;7.78;5.32;;;;;;;21.50;70.98;101136.56;5253413;28;20333;-75
2022/09/07 09:45:54;;;;;;;5.70;5.00;;;;;;;21.55;71.04;101139.13;5264185;28;20029;-74
2022/09/07 09:48:35;;;;;;;8.02;5.38;;;;;;;21.52;71.29;101142.63;5258610;28;20025;-74
2022/09/07 09:51:07;;;;;;;7.13;5.47;;;;;;;21.43;70.25;101139.16;5251916;28;20029;-74
2022/09/07 09:53:49;;;;;;;11.10;8.23;;;;;;;21.44;70.50;101143.59;5263722;28;20468;-75
2022/09/07 09:56:21;;;;;;;8.02;5.25;;;;;;;21.43;69.22;101139.97;5242906;28;20025;-75
2022/09/07 09:59:11;;;;;;;7.85;4.40;;;;;;;21.68;69.25;101140.72;5253820;28;20029;-75
2022/09/07 10:01:46;;;;;;;6.05;4.20;;;;;;;21.64;67.93;101145.41;5259531;28;20060;-74
2022/09/07 10:04:23;;;;;;;6.60;3.97;;;;;;;21.62;67.85;101142.13;5262975;28;20460;-74
2022/09/07 10:07:27;;;;;;;7.10;4.28;;;;;;;21.92;68.41;101131.31;5263335;28;20029;-74
2022/09/07 10:09:59;;;;;;;8.10;3.92;;;;;;;21.93;67.30;101132.97;5257521;28;20052;-74
2022/09/07 10:12:35;;;;;;;6.30;3.22;;;;;;;22.13;67.08;101130.25;5262804;28;20017;-73
2022/09/07 10:15:36;;;;;;;4.90;3.42;;;;;;;22.25;66.05;101129.41;5256256;28;20028;-71
2022/09/07 10:18:20;;;;;;;5.75;2.90;;;;;;;22.26;65.42;101117.72;5261651;28;20352;-71
2022/09/07 10:20:51;;;;;;;7.38;3.30;;;;;;;22.08;64.22;101122.06;5260385;28;20029;-72
2022/09/07 10:23:24;;;;;;;6.68;3.10;;;;;;;22.20;63.48;101118.38;5241843;28;20404;-72
2022/09/07 10:25:55;;;;;;;7.15;3.13;;;;;;;22.32;63.63;101115.50;5241521;28;20025;-75
2022/09/07 10:28:27;;;;;;;5.50;3.25;;;;;;;22.49;63.82;101123.59;5242375;28;20037;-73
2022/09/07 10:31:15;;;;;;;8.30;2.90;;;;;;;22.48;62.82;101121.13;5242377;28;20025;-74
2022/09/07 10:34:00;;;;;;;5.65;3.10;;;;;;;22.45;62.48;101110.56;5260201;28;20432;-74
2022/09/07 10:37:00;;;;;;;6.05;2.97;;;;;;;22.64;63.76;101116.28;5262686;28;20017;-74
2022/09/07 10:39:53;;;;;;;8.05;4.45;;;;;;;22.71;63.11;101110.00;5262178;28;20110;-73
2022/09/07 10:42:28;;;;;;;7.45;3.35;;;;;;;22.77;62.34;101108.53;5262178;28;20052;-74
2022/09/07 10:45:13;;;;;;;;;;;;;;;22.91;62.67;101108.88;5262842;28;20044;-73
2022/09/07 10:48:02;;;;;;;6.13;2.78;;;;;;;22.89;61.71;101105.59;5262356;28;19916;-74
2022/09/07 10:50:49;;;;;;;7.43;3.22;;;;;;;22.99;61.32;101109.91;5245938;28;20372;-73
2022/09/07 10:53:26;;;;;;;7.60;2.45;;;;;;;22.94;60.31;101108.16;5241174;28;20040;-75
2022/09/07 10:56:14;;;;;;;7.32;2.53;;;;;;;22.79;60.83;101100.50;5242236;28;20040;-74
2022/09/07 10:58:55;;;;;;;6.75;5.22;;;;;;;22.83;62.25;101100.59;5241992;28;20033;-75
2022/09/07 11:01:54;;;;;;;5.20;2.53;;;;;;;22.80;62.31;101102.13;5240661;28;20393;-72
2022/09/07 11:04:45;;;;;;;6.85;3.85;;;;;;;22.87;61.34;101107.97;5241864;28;20468;-73
2022/09/07 11:07:28;;;;;;;12.13;9.30;;;;;;;22.75;60.36;101100.44;5247624;28;20435;-72
2022/09/07 11:10:12;;;;;;;5.43;2.72;;;;;;;22.80;59.96;101104.97;5256881;28;20025;-73
2022/09/07 11:12:44;;;;;;;6.68;2.85;;;;;;;22.91;59.73;101103.22;5262301;28;20021;-72
2022/09/07 11:15:23;;;;;;;6.43;2.70;;;;;;;23.05;58.92;101090.63;5262055;28;20368;-75
2022/09/07 11:18:00;;;;;;;7.07;2.80;;;;;;;23.14;57.88;101094.09;5262517;28;20074;-73
2022/09/07 11:20:38;;;;;;;5.55;3.45;;;;;;;23.11;58.37;101090.00;5261430;28;20033;-74
2022/09/07 11:23:25;;;;;;;7.20;2.67;;;;;;;23.00;59.57;101086.91;5242528;28;20055;-74
2022/09/07 11:26:17;;;;;;;7.20;3.00;;;;;;;23.07;60.01;101089.06;5241629;28;20516;-72
2022/09/07 11:28:59;;;;;;;4.35;2.38;;;;;;;23.16;58.78;101097.34;5258317;28;20028;-73
2022/09/07 11:31:45;;;;;;;7.07;2.47;;;;;;;23.14;58.14;101091.25;5261945;28;20033;-73
2022/09/07 11:34:28;;;;;;;8.30;5.35;;;;;;;23.16;58.33;101091.69;5261643;28;20031;-73
2022/09/07 11:37:07;;;;;;;28.73;26.02;;;;;;;23.32;58.02;101086.81;5262186;28;20056;-72
2022/09/07 11:39:51;;;;;;;23.20;20.98;;;;;;;23.39;57.41;101086.97;5254208;28;20108;-73
2022/09/07 11:42:32;;;;;;;4.75;2.42;;;;;;;23.50;57.27;101090.03;5240337;28;20029;-73
2022/09/07 11:45:13;;;;;;;3.38;2.38;;;;;;;23.55;56.78;101091.75;5257302;28;20032;-73
2022/09/07 11:48:03;;;;;;;5.40;2.72;;;;;;;23.60;56.43;101085.78;5261794;28;20048;-73
2022/09/07 11:50:41;;;;;;;4.43;1.83;;;;;;;23.79;56.39;101080.13;5261029;28;20028;-73
2022/09/07 11:53:18;;;;;;;8.52;3.45;;;;;;;23.91;55.53;101084.81;5261904;28;20040;-73
2022/09/07 11:55:58;;;;;;;7.13;2.78;;;;;;;23.83;54.83;101081.00;5258626;28;20475;-72
2022/09/07 11:58:41;;;;;;;5.10;2.13;;;;;;;23.85;55.66;101089.13;5253262;28;20407;-73
2022/09/07 12:01:34;;;;;;;7.03;2.45;;;;;;;23.70;55.33;101088.00;5252357;28;20072;-75
2022/09/07 12:04:23;;;;;;;3.50;1.90;;;;;;;23.74;54.47;101080.41;5259896;28;20025;-74
2022/09/07 12:07:16;;;;;;;2.88;1.70;;;;;;;23.71;51.77;101069.81;5261754;28;20086;-73
2022/09/07 12:10:17;;;;;;;4.60;2.22;;;;;;;23.73;51.29;101072.31;5261136;28;20044;-73
2022/09/07 12:13:20;;;;;;;7.90;2.30;;;;;;;23.89;52.11;101072.22;5252605;28;20152;-74
2022/09/07 12:16:04;;;;;;;4.57;1.80;;;;;;;23.99;50.59;101071.59;5247108;28;20037;-73
2022/09/07 12:18:49;;;;;;;8.23;2.45;;;;;;;24.20;49.72;101074.00;5240213;28;20038;-74
2022/09/07 12:21:32;;;;;;;4.90;2.30;;;;;;;24.30;49.37;101065.69;5240883;28;20032;-74
2022/09/07 12:24:04;;;;;;;6.35;1.83;;;;;;;24.28;47.08;101056.72;5240650;28;20029;-72
2022/09/07 12:26:38;;;;;;;5.65;2.33;;;;;;;24.51;47.92;101053.91;5261894;28;20483;-72
2022/09/07 12:29:19;;;;;;;5.93;1.90;;;;;;;24.50;46.92;101057.13;5260150;28;20066;-74
2022/09/07 12:31:54;;;;;;;5.60;1.70;;;;;;;24.51;47.93;101053.91;5249457;28;20029;-74
2022/09/07 12:34:28;;;;;;;6.00;1.90;;;;;;;24.59;47.45;101060.50;5241714;28;20037;-73
2022/09/07 12:37:01;;;;;;;5.93;2.40;;;;;;;24.57;47.72;101051.59;5241032;28;20029;-75
2022/09/07 12:39:33;;;;;;;4.20;2.05;;;;;;;24.59;47.87;101048.34;5240114;28;20037;-72
2022/09/07 12:42:05;;;;;;;4.57;2.03;;;;;;;24.46;48.86;101045.72;5243101;28;20036;-72
2022/09/07 12:44:37;;;;;;;4.47;1.95;;;;;;;24.44;47.38;101052.94;5254852;28;20022;-71
2022/09/07 12:47:11;;;;;;;5.20;2.10;;;;;;;24.63;47.36;101046.41;5242143;28;20029;-72
2022/09/07 12:50:04;;;;;;;5.03;1.63;;;;;;;24.85;48.63;101044.69;5261626;28;20032;-74
2022/09/07 12:52:48;;;;;;;2.88;1.50;;;;;;;24.93;47.05;101046.47;5263832;28;20036;-71
2022/09/07 12:55:42;;;;;;;2.95;1.75;;;;;;;24.80;46.83;101036.53;5249018;28;20033;-72
2022/09/07 12:58:30;;;;;;;4.88;1.85;;;;;;;25.04;47.32;101030.41;5244442;28;20163;-71
2022/09/07 13:01:20;;;;;;;4.35;1.85;;;;;;;25.27;46.78;101029.50;5243050;28;20050;-70
2022/09/07 13:03:59;;;;;;;5.05;3.55;;;;;;;25.06;45.51;101036.50;5245261;28;20017;-71
2022/09/07 13:06:45;;;;;;;5.78;2.65;;;;;;;25.30;46.78;101028.72;5248799;28;20030;-71
2022/09/07 13:09:37;;;;;;;4.22;1.80;;;;;;;25.33;45.85;101025.94;5244018;28;20030;-71
2022/09/07 13:12:23;;;;;;;3.20;1.60;;;;;;;25.29;45.62;101018.59;5244233;28;20033;-71
2022/09/07 13:15:00;;;;;;;4.05;1.60;;;;;;;25.17;45.36;101023.31;5242774;28;20045;-70
2022/09/07 13:17:35;;;;;;;7.47;2.28;;;;;;;25.01;46.42;101013.34;5244045;28;20033;-71
2022/09/07 13:20:09;;;;;;;5.43;2.72;;;;;;;25.05;46.98;101015.00;5243226;28;20052;-70
2022/09/07 13:22:40;;;;;;;2.70;1.70;;;;;;;25.23;45.91;101011.59;5252907;28;20041;-71
2022/09/07 13:25:19;;;;;;;3.67;1.60;;;;;;;25.41;45.36;101006.97;5261451;28;20120;-70
2022/09/07 13:27:56;;;;;;;3.40;1.50;;;;;;;25.52;44.05;101004.28;5249916;28;20032;-71
2022/09/07 13:30:52;;;;;;;4.13;1.33;;;;;;;25.68;44.61;101006.88;5264214;28;20045;-70
2022/09/07 13:33:23;;;;;;;3.90;1.40;;;;;;;25.72;44.45;101008.56;5263507;28;20135;-69
2022/09/07 13:36:01;;;;;;;4.00;2.13;;;;;;;25.68;44.47;101006.88;5254769;28;20073;-69
2022/09/07 13:38:35;;;;;;;3.00;1.33;;;;;;;25.44;44.62;101006.22;5244253;28;20774;-70
2022/09/07 13:41:14;;;;;;;4.25;1.65;;;;;;;25.40;44.30;101007.38;5243488;28;20029;-71
2022/09/07 13:43:47;;;;;;;3.53;1.55;;;;;;;25.46;43.97;100998.09;5243373;28;20097;-71
2022/09/07 13:46:49;;;;;;;4.05;1.98;;;;;;;25.62;44.33;100997.06;5254251;28;20035;-70
2022/09/07 13:49:38;;;;;;;6.15;5.18;;;;;;;25.61;43.61;100987.72;5255796;28;20037;-71
2022/09/07 13:52:29;;;;;;;2.78;1.80;;;;;;;25.44;44.06;100986.34;5264288;28;20036;-71
2022/09/07 13:55:19;;;;;;;4.43;1.70;;;;;;;25.43;45.16;100987.53;5261580;28;20361;-71
2022/09/07 13:58:03;;;;;;;4.30;1.55;;;;;;;25.23;44.59;100986.88;5243838;28;20025;-72
2022/09/07 14:00:35;;;;;;;4.65;2.38;;;;;;;25.43;44.45;100983.88;5257554;28;20123;-71
2022/09/07 14:03:15;;;;;;;5.05;1.95;;;;;;;25.42;44.53;100983.06;5263271;28;20163;-71
2022/09/07 14:05:46;;;;;;;4.47;1.65;;;;;;;25.45;44.39;100978.63;5261590;28;20448;-71
2022/09/07 14:08:28;;;;;;;4.20;2.10;;;;;;;25.73;44.06;100978.13;5257735;28;20053;-71
2022/09/07 14:10:59;;;;;;;3.38;1.35;;;;;;;25.52;43.36;100967.38;5242274;28;20392;-72
2022/09/07 14:13:31;;;;;;;5.72;1.95;;;;;;;25.35;44.17;100974.47;5251128;28;20025;-72
2022/09/07 14:16:02;;;;;;;1.48;1.15;;;;;;;25.32;44.50;100970.38;5261544;28;20094;-71
2022/09/07 14:18:33;;;;;;;2.65;1.30;;;;;;;25.23;44.21;100974.72;5261541;28;20021;-71
2022/09/07 14:21:16;;;;;;;4.85;1.85;;;;;;;25.39;44.82;100969.66;5263432;28;20064;-70
2022/09/07 14:23:50;;;;;;;13.88;11.45;;;;;;;25.22;44.13;100967.41;5263035;28;20491;-70
2022/09/07 14:26:22;;;;;;;3.78;1.73;;;;;;;25.25;45.46;100980.81;5252427;28;20095;-71
2022/09/07 14:28:55;;;;;;;4.38;1.50;;;;;;;25.13;44.63;100976.19;5243393;28;20030;-71
2022/09/07 14:31:27;;;;;;;4.55;2.28;;;;;;;25.27;45.23;100975.59;5242268;28;20033;-71
2022/09/07 14:33:59;;;;;;;8.02;6.10;;;;;;;25.28;44.68;100966.66;5242899;28;20032;-70
2022/09/07 14:36:33;;;;;;;3.83;1.67;;;;;;;25.27;45.36;100961.41;5242498;28;20382;-71
2022/09/07 14:39:05;;;;;;;11.80;2.60;;;;;;;25.19;44.79;100965.38;5245653;28;20084;-71
2022/09/07 14:41:40;;;;;;;5.15;1.70;;;;;;;25.21;44.77;100968.59;5261700;28;20416;-69
2022/09/07 14:44:41;;;;;;;5.82;1.95;;;;;;;25.26;44.95;100956.91;5260706;28;20092;-69
2022/09/07 14:47:27;;;;;;;3.92;1.55;;;;;;;25.24;45.40;100962.19;5255366;28;20064;-69
2022/09/07 14:50:04;;;;;;;4.75;1.40;;;;;;;25.05;45.33;100963.94;5263107;28;20032;-71
2022/09/07 14:52:40;;;;;;;4.80;1.67;;;;;;;25.22;46.10;100961.75;5261571;28;20036;-71
2022/09/07 14:55:27;;;;;;;8.63;2.47;;;;;;;25.24;46.08;100963.00;5261611;28;20124;-72
2022/09/07 14:58:13;;;;;;;3.63;1.40;;;;;;;25.07;46.11;100964.38;5263327;28;20036;-72
2022/09/07 15:00:47;;;;;;;4.13;1.60;;;;;;;25.00;46.11;100958.59;5244730;28;20056;-69
2022/09/07 15:03:30;;;;;;;4.68;1.40;;;;;;;25.00;46.70;100964.25;5241848;28;20026;-69
2022/09/07 15:06:02;;;;;;;3.97;2.20;;;;;;;25.01;46.62;100956.59;5256101;28;20033;-69
2022/09/07 15:08:47;;;;;;;3.97;1.95;;;;;;;25.04;46.49;100953.78;5249827;28;20094;-69
2022/09/07 15:11:20;;;;;;;4.85;2.00;;;;;;;25.08;46.58;100951.81;5262087;28;20032;-70
2022/09/07 15:13:57;;;;;;;6.35;1.70;;;;;;;25.04;46.22;100950.97;5251345;28;20377;-69
2022/09/07 15:16:28;;;;;;;4.72;1.65;;;;;;;25.12;46.79;100943.34;5241935;28;20086;-70
2022/09/07 15:19:02;;;;;;;3.03;1.33;;;;;;;25.11;45.93;100945.38;5241722;28;20033;-70
2022/09/07 15:21:35;;;;;;;13.77;11.07;;;;;;;25.09;45.67;100950.63;5248827;28;20025;-70
2022/09/07 15:24:07;;;;;;;21.27;19.17;;;;;;;24.95;44.80;100939.06;5262529;28;20025;-70
2022/09/07 15:26:46;;;;;;;4.07;2.35;;;;;;;24.96;45.05;100943.56;5245963;28;20460;-71
2022/09/07 15:29:20;;;;;;;4.15;1.90;;;;;;;24.93;45.43;100945.16;5242101;28;20357;-71
2022/09/07 15:31:51;;;;;;;8.85;2.05;;;;;;;24.89;45.04;100937.78;5241567;28;20053;-69
2022/09/07 15:34:23;;;;;;;3.78;2.28;;;;;;;24.90;45.56;100931.75;5240907;28;20421;-72
2022/09/07 15:36:57;;;;;;;5.85;2.05;;;;;;;24.83;45.23;100928.81;5253040;28;20028;-69
2022/09/07 15:39:29;;;;;;;5.88;1.95;;;;;;;24.87;45.49;100934.53;5246700;28;20025;-70
2022/09/07 15:42:01;;;;;;;3.53;1.50;;;;;;;24.85;45.64;100937.75;5241029;28;20098;-70
2022/09/07 15:44:32;;;;;;;5.35;2.95;;;;;;;24.81;45.16;100938.91;5249840;28;20143;-70
2022/09/07 15:47:04;;;;;;;4.55;1.73;;;;;;;24.76;45.26;100944.91;5248112;28;20049;-70
2022/09/07 15:49:35;;;;;;;4.68;2.55;;;;;;;24.71;45.95;100937.56;5240515;28;20049;-70
2022/09/07 15:52:07;;;;;;;3.95;2.03;;;;;;;24.65;45.24;100939.09;5241532;28;20026;-70
2022/09/07 15:54:38;;;;;;;3.42;1.48;;;;;;;24.59;45.31;100940.63;5241497;28;20032;-70
2022/09/07 15:57:09;;;;;;;5.15;1.65;;;;;;;24.54;45.58;100927.59;5251553;28;20034;-70
2022/09/07 15:59:41;;;;;;;3.30;1.63;;;;;;;24.50;45.40;100926.75;5241166;28;20029;-70
2022/09/07 16:02:12;;;;;;;3.65;1.42;;;;;;;24.59;45.67;100930.09;5239561;28;20049;-73
2022/09/07 16:04:43;;;;;;;3.15;1.55;;;;;;;24.62;45.70;100928.50;5242169;28;20499;-71
2022/09/07 16:07:14;;;;;;;11.57;10.18;;;;;;;24.57;45.38;100926.00;5245214;28;20033;-71
2022/09/07 16:09:46;;;;;;;6.15;1.63;;;;;;;24.59;45.55;100932.13;5251390;28;20033;-71
2022/09/07 16:12:18;;;;;;;4.88;1.90;;;;;;;24.49;45.33;100928.78;5246014;28;20472;-72
2022/09/07 16:14:49;;;;;;;3.58;1.73;;;;;;;24.50;45.37;100927.56;5241481;28;20021;-72
2022/09/07 16:17:21;;;;;;;6.55;1.63;;;;;;;24.54;45.54;100923.94;5240158;28;20087;-70
2022/09/07 16:19:52;;;;;;;3.58;1.77;;;;;;;24.47;45.52;100917.00;5244417;28;20040;-69
2022/09/07 16:22:25;;;;;;;6.22;1.90;;;;;;;24.43;45.86;100920.94;5242661;28;20021;-69
2022/09/07 16:24:56;;;;;;;6.50;2.13;;;;;;;24.42;46.84;100922.16;5243862;28;20066;-69
2022/09/07 16:27:28;;;;;;;5.13;2.03;;;;;;;24.39;46.87;100917.22;5253851;28;20054;-69
2022/09/07 16:29:59;;;;;;;3.88;1.50;;;;;;;24.47;46.92;100910.50;5252849;28;20030;-69
2022/09/07 16:32:33;;;;;;;4.47;1.70;;;;;;;24.45;46.32;100912.91;5243007;28;20029;-69
2022/09/07 16:35:08;;;;;;;3.17;1.80;;;;;;;24.46;46.63;100908.84;5244737;28;20030;-69
2022/09/07 16:37:39;;;;;;;5.30;2.40;;;;;;;24.47;46.67;100910.50;5243907;28;20361;-71
2022/09/07 16:40:11;;;;;;;3.03;1.50;;;;;;;24.47;46.46;100922.66;5246346;28;20037;-69
2022/09/07 16:42:42;;;;;;;4.80;1.90;;;;;;;24.54;46.71;100921.13;5253663;28;20041;-69
2022/09/07 16:45:13;;;;;;;4.60;1.65;;;;;;;24.49;46.68;100922.25;5244322;28;20029;-70
2022/09/07 16:47:45;;;;;;;5.10;2.42;;;;;;;24.45;46.39;100919.38;5261760;28;20029;-70
2022/09/07 16:50:16;;;;;;;3.10;1.52;;;;;;;24.48;46.44;100912.13;5264874;28;20071;-70
2022/09/07 16:52:47;;;;;;;4.40;2.03;;;;;;;24.51;46.70;100917.03;5263265;28;20571;-69
2022/09/07 16:55:19;;;;;;;6.70;2.30;;;;;;;24.52;46.75;100916.66;5256345;28;20032;-69
2022/09/07 16:57:50;;;;;;;5.22;2.13;;;;;;;24.50;46.67;100921.88;5256628;28;20475;-69
2022/09/07 17:00:22;;;;;;;5.18;2.33;;;;;;;24.44;46.99;100917.72;5251474;28;20049;-68
2022/09/07 17:02:53;;;;;;;4.60;1.80;;;;;;;24.44;46.81;100909.22;5246132;28;20483;-71
2022/09/07 17:05:24;;;;;;;6.18;1.90;;;;;;;24.36;47.00;100910.28;5264601;28;20502;-68
2022/09/07 17:07:57;;;;;;;5.13;1.88;;;;;;;24.29;46.88;100910.22;5264856;28;20025;-70
2022/09/07 17:10:28;;;;;;;6.60;2.28;;;;;;;24.27;47.29;100904.91;5264878;28;20099;-69
2022/09/07 17:13:00;;;;;;;4.28;1.45;;;;;;;24.20;47.33;100901.97;5263908;28;20024;-69
2022/09/07 17:15:35;;;;;;;3.22;1.80;;;;;;;24.21;47.88;100902.78;5246472;28;20053;-69
2022/09/07 17:18:07;;;;;;;3.80;1.30;;;;;;;24.07;48.47;100898.53;5243961;28;20112;-70
2022/09/07 17:20:38;;;;;;;5.00;1.45;;;;;;;24.04;48.63;100887.16;5250328;28;20021;-70
2022/09/07 17:23:09;;;;;;;4.13;2.08;;;;;;;23.96;48.84;100886.22;5243623;28;20066;-68
2022/09/07 17:25:40;;;;;;;6.80;2.20;;;;;;;23.91;49.05;100886.56;5252729;28;20054;-70
2022/09/07 17:28:12;;;;;;;3.28;1.33;;;;;;;23.83;49.30;100891.28;5243290;28;20468;-69
2022/09/07 17:30:44;;;;;;;4.10;1.52;;;;;;;23.86;49.45;100893.34;5257558;28;20025;-70
2022/09/07 17:33:15;;;;;;;6.68;1.98;;;;;;;23.76;49.69;100891.16;5254076;28;20108;-69
